createdAt,value
2022-10-11T00:00:52.558Z,6.57
2022-10-11T00:03:19.366Z,6.20
2022-10-11T00:05:46.198Z,5.20
2022-10-11T00:08:13.350Z,6.70
2022-10-11T00:10:40.935Z,7.85
2022-10-11T00:13:07.866Z,7.05
2022-10-11T00:15:34.985Z,8.05
2022-10-11T00:18:05.212Z,8.30
2022-10-11T00:20:32.123Z,7.28
2022-10-11T00:22:58.691Z,6.78
2022-10-11T00:25:25.295Z,5.57
2022-10-11T00:27:51.788Z,6.20
2022-10-11T00:30:18.366Z,8.90
2022-10-11T00:32:44.972Z,7.20
2022-10-11T00:35:11.565Z,7.00
2022-10-11T00:37:39.219Z,5.88
2022-10-11T00:40:10.709Z,7.22
2022-10-11T00:42:37.429Z,7.90
2022-10-11T00:45:31.892Z,5.72
2022-10-11T00:48:05.114Z,5.95
2022-10-11T00:50:36.899Z,6.55
2022-10-11T00:53:08.056Z,6.47
2022-10-11T00:55:39.067Z,6.50
2022-10-11T00:58:06.456Z,8.80
2022-10-11T01:00:33.012Z,7.03
2022-10-11T01:03:00.784Z,8.05
2022-10-11T01:05:29.991Z,9.70
2022-10-11T01:07:59.047Z,5.82
2022-10-11T01:10:26.384Z,5.95
2022-10-11T01:13:19.123Z,6.93
2022-10-11T01:15:58.335Z,8.00
2022-10-11T01:18:35.838Z,8.63
2022-10-11T01:21:24.203Z,7.32
2022-10-11T01:23:56.863Z,6.95
2022-10-11T01:27:01.092Z,7.78
2022-10-11T01:29:51.973Z,7.63
2022-10-11T01:32:35.433Z,5.53
2022-10-11T01:35:21.838Z,7.47
2022-10-11T01:38:11.459Z,7.63
2022-10-11T01:40:52.570Z,5.88
2022-10-11T01:43:20.635Z,5.60
2022-10-11T01:45:50.940Z,8.80
2022-10-11T01:48:17.444Z,8.52
2022-10-11T01:50:46.744Z,8.07
2022-10-11T01:53:38.133Z,7.53
2022-10-11T01:56:07.889Z,8.48
2022-10-11T01:58:47.077Z,10.20
2022-10-11T02:01:41.654Z,8.75
2022-10-11T02:04:31.565Z,10.23
2022-10-11T02:07:01.546Z,11.48
2022-10-11T02:09:36.714Z,10.57
2022-10-11T02:12:08.171Z,12.30
2022-10-11T02:14:41.586Z,12.90
2022-10-11T02:17:20.847Z,13.30
2022-10-11T02:19:50.453Z,14.35
2022-10-11T02:22:27.756Z,12.38
2022-10-11T02:24:56.477Z,12.77
2022-10-11T02:27:26.084Z,13.63
2022-10-11T02:29:54.473Z,14.20
2022-10-11T02:32:22.329Z,13.48
2022-10-11T02:34:57.357Z,14.30
2022-10-11T02:37:49.392Z,14.48
2022-10-11T02:40:25.949Z,13.73
2022-10-11T02:42:59.989Z,14.07
2022-10-11T02:45:37.456Z,15.50
2022-10-11T02:48:05.214Z,13.88
2022-10-11T02:50:34.060Z,13.80
2022-10-11T02:53:00.677Z,14.93
2022-10-11T02:55:27.261Z,15.75
2022-10-11T02:57:53.951Z,14.77
2022-10-11T03:00:20.747Z,14.57
2022-10-11T03:02:47.472Z,13.77
2022-10-11T03:05:14.153Z,14.35
2022-10-11T03:07:40.752Z,13.40
2022-10-11T03:10:07.698Z,13.88
2022-10-11T03:12:36.996Z,12.68
2022-10-11T03:15:04.427Z,13.63
2022-10-11T03:17:36.668Z,11.90
2022-10-11T03:20:05.196Z,12.98
2022-10-11T03:22:31.757Z,12.50
2022-10-11T03:25:03.362Z,11.13
2022-10-11T03:27:30.793Z,11.20
2022-10-11T03:29:58.006Z,11.00
2022-10-11T03:32:24.863Z,10.38
2022-10-11T03:34:51.459Z,11.45
2022-10-11T03:37:18.309Z,10.27
2022-10-11T03:39:45.861Z,9.65
2022-10-11T03:42:13.292Z,10.68
2022-10-11T03:44:41.715Z,7.50
2022-10-11T03:47:08.666Z,8.35
2022-10-11T03:49:37.735Z,8.52
2022-10-11T03:52:07.985Z,6.40
2022-10-11T03:54:34.658Z,8.20
2022-10-11T03:57:03.171Z,6.55
2022-10-11T03:59:32.172Z,6.47
2022-10-11T04:01:58.896Z,6.45
2022-10-11T04:04:35.939Z,6.00
2022-10-11T04:07:02.667Z,6.00
2022-10-11T04:09:29.428Z,5.70
2022-10-11T04:11:58.558Z,5.97
2022-10-11T04:14:25.261Z,5.00
2022-10-11T04:16:51.880Z,7.22
2022-10-11T04:19:18.557Z,5.30
2022-10-11T04:21:45.111Z,6.93
2022-10-11T04:24:12.434Z,5.65
2022-10-11T04:26:41.037Z,5.40
2022-10-11T04:29:07.615Z,4.78
2022-10-11T04:31:34.298Z,5.80
2022-10-11T04:34:01.268Z,6.65
2022-10-11T04:36:30.203Z,5.65
2022-10-11T04:38:57.457Z,7.38
2022-10-11T04:41:26.763Z,6.90
2022-10-11T04:43:53.293Z,6.28
2022-10-11T04:46:19.881Z,8.48
2022-10-11T04:48:46.356Z,8.13
2022-10-11T04:51:13.287Z,6.68
2022-10-11T04:53:43.282Z,7.38
2022-10-11T04:56:14.822Z,4.78
2022-10-11T04:58:41.729Z,3.63
2022-10-11T05:01:08.831Z,4.93
2022-10-11T05:03:35.946Z,6.35
2022-10-11T05:06:05.683Z,6.10
2022-10-11T05:08:33.185Z,6.90
2022-10-11T05:11:02.359Z,6.35
2022-10-11T05:13:30.121Z,5.50
2022-10-11T05:15:57.137Z,7.13
2022-10-11T05:18:24.234Z,5.07
2022-10-11T05:20:59.923Z,6.63
2022-10-11T05:23:27.379Z,7.78
2022-10-11T05:25:58.627Z,3.33
2022-10-11T05:28:25.720Z,9.75
2022-10-11T05:30:52.729Z,4.90
2022-10-11T05:33:23.824Z,4.88
2022-10-11T05:35:50.575Z,5.15
2022-10-11T05:38:19.490Z,6.47
2022-10-11T05:40:46.587Z,3.78
2022-10-11T05:43:13.586Z,5.82
2022-10-11T05:45:41.595Z,5.10
2022-10-11T05:48:13.588Z,5.72
2022-10-11T05:50:44.085Z,3.58
2022-10-11T05:53:13.578Z,9.07
2022-10-11T05:55:44.292Z,5.63
2022-10-11T05:58:14.879Z,5.60
2022-10-11T06:00:47.162Z,5.30
2022-10-11T06:03:14.337Z,7.60
2022-10-11T06:05:40.859Z,5.03
2022-10-11T06:08:17.020Z,9.30
2022-10-11T06:10:44.863Z,4.78
2022-10-11T06:13:17.646Z,4.90
2022-10-11T06:15:53.950Z,4.88
2022-10-11T06:18:22.522Z,7.38
2022-10-11T06:20:49.620Z,6.60
2022-10-11T06:23:16.301Z,6.22
2022-10-11T06:25:42.842Z,5.68
2022-10-11T06:28:11.585Z,4.90
2022-10-11T06:30:40.645Z,4.45
2022-10-11T06:33:08.813Z,7.53
2022-10-11T06:35:38.376Z,4.40
2022-10-11T06:38:05.234Z,4.10
2022-10-11T06:40:31.922Z,4.55
2022-10-11T06:42:58.761Z,6.38
2022-10-11T06:45:34.093Z,5.57
2022-10-11T06:48:05.709Z,6.90
2022-10-11T06:50:57.856Z,4.38
2022-10-11T06:53:27.399Z,6.50
2022-10-11T06:55:54.117Z,5.65
2022-10-11T06:58:20.672Z,4.65
2022-10-11T07:00:48.651Z,6.25
2022-10-11T07:03:15.256Z,6.10
2022-10-11T07:05:42.838Z,15.07
2022-10-11T07:08:09.518Z,11.52
2022-10-11T07:10:37.300Z,10.70
2022-10-11T07:13:11.444Z,11.90
2022-10-11T07:15:44.020Z,5.75
2022-10-11T07:18:10.587Z,6.47
2022-10-11T07:20:37.206Z,6.68
2022-10-11T07:23:03.809Z,9.13
2022-10-11T07:25:30.485Z,7.80
2022-10-11T07:27:57.145Z,6.50
2022-10-11T07:30:23.669Z,7.80
2022-10-11T07:32:50.161Z,16.48
2022-10-11T07:35:16.747Z,52.13
2022-10-11T07:37:43.246Z,14.20
2022-10-11T07:40:11.305Z,11.35
2022-10-11T07:42:38.108Z,4.57
2022-10-11T07:45:05.225Z,9.38
2022-10-11T07:47:31.697Z,7.47
2022-10-11T07:49:58.145Z,7.13
2022-10-11T07:52:24.884Z,4.75
2022-10-11T07:54:54.760Z,7.40
2022-10-11T07:57:24.331Z,5.20
2022-10-11T07:59:56.113Z,7.82
2022-10-11T08:02:25.770Z,4.40
2022-10-11T08:05:00.871Z,7.95
2022-10-11T08:07:28.327Z,9.27
2022-10-11T08:10:15.682Z,6.82
2022-10-11T08:13:03.392Z,5.07
2022-10-11T08:18:29.336Z,6.90
2022-10-11T08:20:56.213Z,5.70
2022-10-11T08:23:22.752Z,3.13
2022-10-11T08:25:49.591Z,6.72
2022-10-11T08:28:19.256Z,4.82
2022-10-11T08:30:57.006Z,5.55
2022-10-11T08:33:42.801Z,5.18
2022-10-11T08:36:10.581Z,6.90
2022-10-11T08:38:38.042Z,7.22
2022-10-11T08:41:23.345Z,7.18
2022-10-11T08:44:37.332Z,7.20
2022-10-11T08:47:19.907Z,6.95
2022-10-11T08:49:47.007Z,8.68
2022-10-11T08:52:22.109Z,8.75
2022-10-11T08:55:11.747Z,10.13
2022-10-11T08:57:39.433Z,8.23
2022-10-11T09:00:11.415Z,12.93
2022-10-11T09:03:07.374Z,6.32
2022-10-11T09:05:58.305Z,13.85
2022-10-11T09:08:46.502Z,13.40
2022-10-11T09:11:17.343Z,10.25
2022-10-11T09:13:56.686Z,5.50
2022-10-11T09:16:39.759Z,5.68
2022-10-11T09:19:17.774Z,5.63
2022-10-11T09:21:50.738Z,5.30
2022-10-11T09:24:39.308Z,4.90
2022-10-11T09:27:38.081Z,6.15
2022-10-11T09:30:16.955Z,10.07
2022-10-11T09:32:51.864Z,5.63
2022-10-11T09:35:20.951Z,7.90
2022-10-11T09:38:25.994Z,5.75
2022-10-11T09:41:27.180Z,7.68
2022-10-11T09:43:53.900Z,7.07
2022-10-11T09:46:37.242Z,7.70
2022-10-11T09:49:09.195Z,7.30
2022-10-11T09:51:42.005Z,8.02
2022-10-11T09:54:10.882Z,5.22
2022-10-11T09:56:43.085Z,5.07
2022-10-11T09:59:29.015Z,7.82
2022-10-11T10:02:06.869Z,5.63
2022-10-11T10:04:33.743Z,4.47
2022-10-11T10:07:10.727Z,4.68
2022-10-11T10:09:39.659Z,5.38
2022-10-11T10:12:15.440Z,6.18
2022-10-11T10:14:42.111Z,6.07
2022-10-11T10:17:18.289Z,5.72
2022-10-11T10:19:54.070Z,5.68
2022-10-11T10:22:21.831Z,5.13
2022-10-11T10:24:51.976Z,6.00
2022-10-11T10:27:27.974Z,4.53
2022-10-11T10:30:09.518Z,7.13
2022-10-11T10:32:53.373Z,6.45
2022-10-11T10:35:29.767Z,8.57
2022-10-11T10:38:26.890Z,5.05
2022-10-11T10:40:59.154Z,8.52
2022-10-11T10:43:28.345Z,4.47
2022-10-11T10:46:31.911Z,7.95
2022-10-11T10:52:15.395Z,3.80
2022-10-11T10:55:13.066Z,5.45
2022-10-11T10:58:21.237Z,5.53
2022-10-11T11:01:04.515Z,5.45
2022-10-11T11:03:45.071Z,7.03
2022-10-11T11:06:24.521Z,5.35
2022-10-11T11:09:00.262Z,4.55
2022-10-11T11:11:48.363Z,4.78
2022-10-11T11:14:35.077Z,5.85
2022-10-11T11:17:19.922Z,6.75
2022-10-11T11:20:11.404Z,3.70
2022-10-11T11:23:03.520Z,5.15
2022-10-11T11:25:45.080Z,2.88
2022-10-11T11:28:35.083Z,6.65
2022-10-11T11:31:25.053Z,4.47
2022-10-11T11:34:06.916Z,4.00
2022-10-11T11:36:42.597Z,6.63
2022-10-11T11:39:21.236Z,6.38
2022-10-11T11:41:52.639Z,5.82
2022-10-11T11:44:46.647Z,7.15
2022-10-11T11:47:22.496Z,3.40
2022-10-11T11:50:07.585Z,5.43
2022-10-11T11:52:37.586Z,4.30
2022-10-11T11:55:25.509Z,6.22
2022-10-11T11:58:18.242Z,5.18
2022-10-11T12:00:58.332Z,4.28
2022-10-11T12:03:29.514Z,4.93
2022-10-11T12:06:14.826Z,6.63
2022-10-11T12:08:46.946Z,4.72
2022-10-11T12:11:34.518Z,5.07
2022-10-11T12:14:04.632Z,4.70
2022-10-11T12:16:33.415Z,5.80
2022-10-11T12:19:02.390Z,6.75
2022-10-11T12:21:38.656Z,3.85
2022-10-11T12:24:20.472Z,3.08
2022-10-11T12:26:48.604Z,3.47
2022-10-11T12:29:25.870Z,4.95
2022-10-11T12:32:01.013Z,9.13
2022-10-11T12:34:38.037Z,7.13
2022-10-11T12:37:19.882Z,4.15
2022-10-11T12:39:53.260Z,5.00
2022-10-11T12:42:31.449Z,4.85
2022-10-11T12:45:32.781Z,4.53
2022-10-11T12:48:24.899Z,5.07
2022-10-11T12:51:13.297Z,5.43
2022-10-11T12:54:25.054Z,4.07
2022-10-11T12:56:47.525Z,2.35
2022-10-11T12:59:21.069Z,3.78
2022-10-11T13:01:54.729Z,4.03
2022-10-11T13:04:28.401Z,7.63
2022-10-11T13:06:57.422Z,4.70
2022-10-11T13:09:39.351Z,4.72
2022-10-11T13:12:14.690Z,4.22
2022-10-11T13:14:44.554Z,3.60
2022-10-11T13:17:38.026Z,3.20
2022-10-11T13:20:37.467Z,5.70
2022-10-11T13:23:29.335Z,4.68
2022-10-11T13:25:56.157Z,5.47
2022-10-11T13:28:25.265Z,7.20
2022-10-11T13:30:56.619Z,3.85
2022-10-11T13:33:34.012Z,4.20
2022-10-11T13:36:03.162Z,4.40
2022-10-11T13:38:35.618Z,4.72
2022-10-11T13:41:08.531Z,4.82
2022-10-11T13:43:35.387Z,4.20
2022-10-11T13:46:05.231Z,4.28
2022-10-11T13:48:32.451Z,5.68
2022-10-11T13:51:27.058Z,3.45
2022-10-11T13:53:59.257Z,5.47
2022-10-11T13:56:27.238Z,6.00
2022-10-11T13:58:55.418Z,5.93
2022-10-11T14:01:25.616Z,3.85
2022-10-11T14:04:00.892Z,3.95
2022-10-11T14:06:54.888Z,2.42
2022-10-11T14:09:28.604Z,3.40
2022-10-11T14:11:55.741Z,4.15
2022-10-11T14:14:36.865Z,5.10
2022-10-11T14:17:16.050Z,3.72
2022-10-11T14:19:44.164Z,5.85
2022-10-11T14:22:19.870Z,2.25
2022-10-11T14:24:49.536Z,2.22
2022-10-11T14:27:22.178Z,3.83
2022-10-11T14:30:12.995Z,4.53
2022-10-11T14:32:42.421Z,9.55
2022-10-11T14:35:18.752Z,5.07
2022-10-11T14:37:45.532Z,4.25
2022-10-11T14:40:18.425Z,3.22
2022-10-11T14:42:48.254Z,3.33
2022-10-11T14:45:18.010Z,7.00
2022-10-11T14:47:45.334Z,2.72
2022-10-11T14:50:33.647Z,3.67
2022-10-11T14:53:00.617Z,5.32
2022-10-11T14:55:29.857Z,22.58
2022-10-11T14:57:56.964Z,33.28
2022-10-11T15:00:26.536Z,42.25
2022-10-11T15:02:54.067Z,35.05
2022-10-11T15:05:22.622Z,18.17
2022-10-11T15:07:49.737Z,4.82
2022-10-11T15:10:37.702Z,13.15
2022-10-11T15:13:06.947Z,27.17
2022-10-11T15:15:36.595Z,36.13
2022-10-11T15:18:04.988Z,57.67
2022-10-11T15:20:40.755Z,132.60
2022-10-11T15:23:12.096Z,57.72
2022-10-11T15:25:40.564Z,27.13
2022-10-11T15:28:08.103Z,11.10
2022-10-11T15:30:41.059Z,5.50
2022-10-11T15:33:08.578Z,5.85
2022-10-11T15:35:35.214Z,5.53
2022-10-11T15:38:01.790Z,13.52
2022-10-11T15:40:38.194Z,7.68
2022-10-11T15:43:05.074Z,10.48
2022-10-11T15:45:31.707Z,7.63
2022-10-11T15:47:58.860Z,5.85
2022-10-11T15:50:36.247Z,4.82
2022-10-11T15:53:12.226Z,7.45
2022-10-11T15:55:44.240Z,9.30
2022-10-11T15:58:15.409Z,9.82
2022-10-11T16:00:43.143Z,6.28
2022-10-11T16:03:11.683Z,5.80
2022-10-11T16:05:38.737Z,5.57
2022-10-11T16:08:05.416Z,6.55
2022-10-11T16:10:32.288Z,7.95
2022-10-11T16:12:58.813Z,6.68
2022-10-11T16:15:25.331Z,3.28
2022-10-11T16:17:52.144Z,6.72
2022-10-11T16:20:25.832Z,4.53
2022-10-11T16:22:56.058Z,4.32
2022-10-11T16:25:23.972Z,4.50
2022-10-11T16:27:51.015Z,2.95
2022-10-11T16:30:22.728Z,4.03
2022-10-11T16:32:49.548Z,24.80
2022-10-11T16:35:19.705Z,12.05
2022-10-11T16:37:46.356Z,10.05
2022-10-11T16:40:17.342Z,6.47
2022-10-11T16:42:44.911Z,6.07
2022-10-11T16:45:12.496Z,10.45
2022-10-11T16:47:39.154Z,7.13
2022-10-11T16:50:06.151Z,6.07
2022-10-11T16:52:32.849Z,6.28
2022-10-11T16:54:59.302Z,6.22
2022-10-11T16:57:25.854Z,8.43
2022-10-11T16:59:54.456Z,6.50
2022-10-11T17:02:31.330Z,103.72
2022-10-11T17:04:58.896Z,46.33
2022-10-11T17:07:25.527Z,19.83
2022-10-11T17:09:52.095Z,9.85
2022-10-11T17:12:21.306Z,6.15
2022-10-11T17:14:48.672Z,5.85
2022-10-11T17:17:15.836Z,5.28
2022-10-11T17:19:45.359Z,6.05
2022-10-11T17:22:13.050Z,8.18
2022-10-11T17:24:39.848Z,6.93
2022-10-11T17:27:06.907Z,9.50
2022-10-11T17:29:33.904Z,9.30
2022-10-11T17:32:02.083Z,7.65
2022-10-11T17:34:28.860Z,5.47
2022-10-11T17:36:55.514Z,7.07
2022-10-11T17:39:23.612Z,5.97
2022-10-11T17:41:50.474Z,130.00
2022-10-11T17:44:18.604Z,148.98
2022-10-11T17:46:48.339Z,177.20
2022-10-11T17:49:15.190Z,128.25
2022-10-11T17:51:42.091Z,48.97
2022-10-11T17:54:12.674Z,36.58
2022-10-11T17:56:40.938Z,40.08
2022-10-11T17:59:09.016Z,119.47
2022-10-11T18:01:36.315Z,160.43
2022-10-11T18:04:04.567Z,147.35
2022-10-11T18:06:34.108Z,86.53
2022-10-11T18:09:04.543Z,62.25
2022-10-11T18:11:31.485Z,26.23
2022-10-11T18:13:58.025Z,19.48
2022-10-11T18:16:29.371Z,11.23
2022-10-11T18:18:57.427Z,7.68
2022-10-11T18:21:29.871Z,11.35
2022-10-11T18:24:02.591Z,9.88
2022-10-11T18:26:30.745Z,8.13
2022-10-11T18:28:58.134Z,7.35
2022-10-11T18:31:28.433Z,6.78
2022-10-11T18:33:55.530Z,6.75
2022-10-11T18:36:24.515Z,5.78
2022-10-11T18:39:03.054Z,6.68
2022-10-11T18:41:31.793Z,6.60
2022-10-11T18:44:02.660Z,4.70
2022-10-11T18:46:29.713Z,5.97
2022-10-11T18:48:58.182Z,6.05
2022-10-11T18:51:30.673Z,9.45
2022-10-11T18:54:01.029Z,8.63
2022-10-11T18:56:29.155Z,8.82
2022-10-11T18:58:57.288Z,6.07
2022-10-11T19:01:30.065Z,6.13
2022-10-11T19:03:58.087Z,5.63
2022-10-11T19:06:30.398Z,5.30
2022-10-11T19:09:06.644Z,6.28
2022-10-11T19:11:39.045Z,5.53
2022-10-11T19:14:11.972Z,6.75
2022-10-11T19:16:40.814Z,6.55
2022-10-11T19:19:09.402Z,7.30
2022-10-11T19:21:36.240Z,5.70
2022-10-11T19:24:03.294Z,5.22
2022-10-11T19:26:33.584Z,9.32
2022-10-11T19:29:08.057Z,7.22
2022-10-11T19:31:38.306Z,8.90
2022-10-11T19:34:04.963Z,6.03
2022-10-11T19:36:36.257Z,7.35
2022-10-11T19:39:04.375Z,6.95
2022-10-11T19:41:31.418Z,7.03
2022-10-11T19:44:00.819Z,6.68
2022-10-11T19:46:51.088Z,7.80
2022-10-11T19:49:20.435Z,5.45
2022-10-11T19:51:47.148Z,6.65
2022-10-11T19:54:14.665Z,9.27
2022-10-11T19:56:42.524Z,7.47
2022-10-11T19:59:10.377Z,5.25
2022-10-11T20:01:40.364Z,6.65
2022-10-11T20:04:22.623Z,5.88
2022-10-11T20:06:54.325Z,6.65
2022-10-11T20:09:30.039Z,5.63
2022-10-11T20:11:58.374Z,5.43
2022-10-11T20:14:25.121Z,5.68
2022-10-11T20:16:52.091Z,7.80
2022-10-11T20:19:26.336Z,5.32
2022-10-11T20:21:57.534Z,6.25
2022-10-11T20:24:24.050Z,5.35
2022-10-11T20:26:50.514Z,6.63
2022-10-11T20:29:17.011Z,5.50
2022-10-11T20:31:46.683Z,4.47
2022-10-11T20:34:13.468Z,4.75
2022-10-11T20:36:39.978Z,5.57
2022-10-11T20:39:06.717Z,5.85
2022-10-11T20:41:37.047Z,7.13
2022-10-11T20:44:04.688Z,7.13
2022-10-11T20:46:33.694Z,5.28
2022-10-11T20:49:02.524Z,6.22
2022-10-11T20:51:36.931Z,5.25
2022-10-11T20:54:06.745Z,4.38
2022-10-11T20:56:34.422Z,6.40
2022-10-11T20:59:01.524Z,6.22
2022-10-11T21:01:30.483Z,4.05
2022-10-11T21:03:58.321Z,4.95
2022-10-11T21:06:25.764Z,5.40
2022-10-11T21:08:55.268Z,5.35
2022-10-11T21:11:24.433Z,4.75
2022-10-11T21:13:57.839Z,5.72
2022-10-11T21:16:25.246Z,4.22
2022-10-11T21:18:53.286Z,4.82
2022-10-11T21:21:26.125Z,4.85
2022-10-11T21:24:00.010Z,6.40
2022-10-11T21:26:27.633Z,5.28
2022-10-11T21:28:54.448Z,5.05
2022-10-11T21:31:21.745Z,7.28
2022-10-11T21:33:48.662Z,7.30
2022-10-11T21:36:17.684Z,6.65
2022-10-11T21:38:44.621Z,3.22
2022-10-11T21:41:14.306Z,7.35
2022-10-11T21:43:41.011Z,7.60
2022-10-11T21:46:10.001Z,7.65
2022-10-11T21:48:36.925Z,6.93
2022-10-11T21:51:03.641Z,9.27
2022-10-11T21:53:33.086Z,7.43
2022-10-11T21:56:00.699Z,5.35
2022-10-11T21:58:27.742Z,4.25
2022-10-11T22:00:54.336Z,3.60
2022-10-11T22:03:21.030Z,4.53
2022-10-11T22:05:49.206Z,7.07
2022-10-11T22:08:16.288Z,8.50
2022-10-11T22:10:44.259Z,7.25
2022-10-11T22:13:11.332Z,9.90
2022-10-11T22:15:37.900Z,9.93
2022-10-11T22:18:05.919Z,10.70
2022-10-11T22:20:33.116Z,8.55
2022-10-11T22:22:59.859Z,8.68
2022-10-11T22:25:26.501Z,9.38
2022-10-11T22:27:53.011Z,8.35
2022-10-11T22:30:19.486Z,8.25
2022-10-11T22:32:46.109Z,7.15
2022-10-11T22:35:12.554Z,8.55
2022-10-11T22:37:41.913Z,8.63
2022-10-11T22:40:08.702Z,6.38
2022-10-11T22:42:35.381Z,7.88
2022-10-11T22:45:01.999Z,6.93
2022-10-11T22:47:28.512Z,4.90
2022-10-11T22:49:55.023Z,6.68
2022-10-11T22:52:21.553Z,5.28
2022-10-11T22:54:48.083Z,7.30
2022-10-11T22:57:14.565Z,5.30
2022-10-11T22:59:41.139Z,4.97
2022-10-11T23:02:07.874Z,7.25
2022-10-11T23:04:34.607Z,6.82
2022-10-11T23:07:04.747Z,5.03
2022-10-11T23:09:31.757Z,6.25
2022-10-11T23:11:59.332Z,5.10
2022-10-11T23:14:25.885Z,4.63
2022-10-11T23:16:52.958Z,5.57
2022-10-11T23:19:19.770Z,5.22
2022-10-11T23:21:46.786Z,4.00
2022-10-11T23:24:13.454Z,7.30
2022-10-11T23:26:40.042Z,4.22
2022-10-11T23:29:06.555Z,5.10
2022-10-11T23:31:33.131Z,5.00
2022-10-11T23:33:59.694Z,3.75
2022-10-11T23:36:26.439Z,4.57
2022-10-11T23:38:57.394Z,5.38
2022-10-11T23:41:26.184Z,5.68
2022-10-11T23:43:55.868Z,4.38
2022-10-11T23:46:22.625Z,4.63
2022-10-11T23:48:49.199Z,4.60
2022-10-11T23:51:16.230Z,6.70
2022-10-11T23:53:43.008Z,8.32
2022-10-11T23:56:11.047Z,9.50
2022-10-11T23:58:37.820Z,5.07
